x

North Equatorial One- 470 Nm East Of Martinique (41040) Wave Buoy

1:50pm - Mon 16th Jan 2017 All times are UTC.

  • Sig Wave height 7.2ft
  • Swell Direction
  • Peak Period 8s
  • Average Period 6s
  • Wind
    18mph, 22mph gusts
  • Sea Temp 80°f
  • Air Temp 79°f
  • Sea Pressure 1014.9mb

More Historic Weather Station data

Upgrade to MSW Pro to gain access to the past 30 days of data for over 8000 Wavebouys and Weather Stations around the globe.

Join Pro

Comparision Forecast

View Surf forecast
   
Mon 01/16 1:50pm 7ft 8s 6s 18 22 mph 1014.9mb 80f 79f
12:50pm 7.5ft 11s 6s 20 22 mph 1014.6mb 80f 79f
11:50am 7.5ft 9s 6s 18 22 mph 1013.8mb 80f 78f
10:50am 7ft 10s 6s 18 22 mph 1013mb 80f 78f
9:50am 7.5ft 9s 7s 20 22 mph 1012.3mb 80f 78f
8:50am 7.5ft 10s 6s 20 22 mph 1011.8mb 80f 78f
7:50am 7.5ft 10s 7s 20 25 mph 1011.8mb 80f 78f
6:50am 7ft 9s 7s 18 22 mph 1012mb 80f 78f
5:50am 7.5ft 11s 7s 18 20 mph 1012.6mb 80f 78f
4:50am 7ft 9s 7s 18 22 mph 1013.2mb 80f 78f
3:50am 6.5ft 9s 7s 16 18 mph 1013.5mb 80f 78f
2:50am 7ft 10s 7s 18 20 mph 1013.6mb 80f 78f
1:50am 6ft 10s 6s 16 20 mph 1013.6mb 80f 78f
12:50am 7ft 11s 7s 16 18 mph 1013.6mb 80f 78f
Sun 01/15 11:50pm 6.5ft 10s 7s 16 20 mph 1013.1mb 80f 78f
10:50pm 7ft 9s 7s 16 20 mph 1012.8mb 80f 78f
9:50pm 7ft 11s 7s 18 20 mph 1012.1mb 80f 78f
8:50pm 7ft 11s 7s 16 20 mph 1012mb 80f 78f
7:50pm 6.5ft 10s 7s 16 20 mph 1011.7mb 80f 78f
6:50pm 6ft 9s 7s 16 20 mph 1011.7mb 80f 78f
5:50pm 6.5ft 10s 7s 16 18 mph 1011.9mb 80f 78f
4:50pm 6.5ft 10s 7s 16 18 mph 1012.4mb 80f 78f
3:50pm 6.5ft 11s 7s 16 20 mph 1013.2mb 80f 78f
2:50pm 6ft 11s 7s 16 20 mph 1013.9mb 80f 78f
1:50pm 6ft 11s 7s 13 16 mph 1014.4mb 80f 78f
12:50pm 6ft 11s 7s 13 18 mph 1014.2mb 80f 78f
11:50am 6.5ft 11s 8s 13 16 mph 1013.5mb 80f 78f
10:50am 6.5ft 11s 8s 13 16 mph 1012.6mb 80f 77f
9:50am 6ft 10s 8s 13 16 mph 1011.9mb 80f 77f
8:50am 6ft 11s 8s 11 16 mph 1011.7mb 80f 77f
7:50am 6ft 10s 8s 13 16 mph 1011.3mb 80f 77f
6:50am 6ft 11s 8s 11 13 mph 1011.5mb 80f 77f
5:50am 6ft 11s 8s 9 13 mph 1012.1mb 80f 77f
4:50am 6.5ft 12s 9s 11 13 mph 1012.4mb 80f 77f
3:50am 7ft 11s 9s 9 11 mph 1012.9mb 80f 77f
2:50am 6ft 12s 9s 9 11 mph 1013.1mb 80f 78f
1:50am 6ft 11s 9s 9 11 mph 1013.1mb 80f 78f
12:50am 6ft 11s 9s 7 11 mph 1013.1mb 80f 78f
Sat 01/14 11:50pm 6.5ft 11s 9s 7 11 mph 1012.8mb 81f 78f
10:50pm 6ft 10s 9s 7 9 mph 1012.4mb 81f 78f
9:50pm 5.5ft 12s 8s 7 9 mph 1011.8mb 81f 78f
8:50pm 6.5ft 10s 9s 7 9 mph 1011.5mb 81f 78f
7:50pm 7ft 11s 9s 7 9 mph 1011.3mb 82f 78f
6:50pm 6ft 13s 9s 7 9 mph 1011.1mb 82f 78f
5:50pm 6.5ft 12s 9s 7 9 mph 1011.3mb 82f 78f
4:50pm 7ft 12s 9s 4 7 mph 1012mb 82f 78f
3:50pm 6.5ft 12s 9s 4 7 mph 1012.8mb 81f 78f
2:50pm 6.5ft 13s 9s 4 9 mph 1013.5mb 81f 77f
1:50pm 7ft 12s 9s 7 9 mph 1013.8mb 81f 77f
12:50pm 7ft 12s 9s 7 9 mph 1013.6mb 80f 78f
11:50am 7ft 13s 9s 7 11 mph 1013mb 80f 77f
10:50am 7ft 13s 9s 4 9 mph 1012.3mb 80f 77f
9:50am 7ft 11s 9s 7 9 mph 1011.6mb 80f 77f
8:50am 8ft 13s 9s 7
mph
1011mb 80f 77f
7:50am 7.5ft 13s 10s 4 7 mph 1011.1mb 80f 77f
6:50am 7ft 13s 9s 4 9 mph 1011.3mb 80f 77f
5:50am 8ft 12s 10s 2 4 mph 1011.9mb 80f 77f
4:50am 7.5ft 12s 9s 4
mph
1012.3mb 80f 77f
3:50am 7ft 11s 10s 7 9 mph 1012.9mb 80f 77f
2:50am 7ft 11s 9s 4 9 mph 1013.2mb 80f 77f
1:50am 7.5ft 11s 9s 7 9 mph 1013.6mb 80f 78f
12:50am 7ft 11s 9s 4 9 mph 1013.7mb 81f 78f
Fri 01/13 11:50pm 8ft 12s 9s 4 9 mph 1013.5mb 81f 78f
10:50pm 7.5ft 12s 9s 4 9 mph 1012.7mb 81f 78f
9:50pm 7ft 13s 9s 4 7 mph 1012.1mb 81f 78f
8:50pm 7.5ft 12s 9s 4 7 mph 1011.7mb 82f 78f
7:50pm 7ft 12s 9s 4 7 mph 1011.6mb 83f 79f
6:50pm 7ft 11s 9s 2 4 mph 1011.3mb 83f 79f
5:50pm 8ft 13s 10s 2
mph
1011.4mb 83f 78f
4:50pm 7.5ft 11s 10s  -  4 mph 1011.7mb 82f 78f
3:50pm 6.5ft 12s 9s 4 7 mph 1012.8mb 81f 77f
2:50pm 7.5ft 13s 10s 4 9 mph 1013.4mb 81f 77f
1:50pm 7ft 11s 10s 4 7 mph 1014mb 80f 77f
12:50pm 8ft 11s 10s 4 9 mph 1014mb 80f 77f
11:50am 7.5ft 13s 10s 2 4 mph 1013.7mb 80f 77f
10:50am 7ft 12s 10s 4 7 mph 1012.8mb 80f 77f
9:50am 7.5ft 11s 10s 4 7 mph 1012mb 80f 76f
8:50am 8ft 11s 10s 4 7 mph 1011.7mb 80f 77f
7:50am 8ft 12s 10s 4 7 mph 1011.7mb 80f 76f
6:50am 8ft 13s 10s 2 4 mph 1012.1mb 80f 77f
5:50am 8ft 11s 10s 4 7 mph 1012.6mb 80f 77f
4:50am 9ft 14s 10s 4 7 mph 1012.9mb 80f 77f
3:50am 7.5ft 13s 10s 4 9 mph 1013.2mb 80f 77f
2:50am 8.5ft 13s 10s 4 9 mph 1013.5mb 80f 77f
1:50am 9ft 14s 10s 7 9 mph 1013.5mb 80f 78f
12:50am 8ft 11s 10s 7 9 mph 1013.7mb 80f 78f
Thu 01/12 11:50pm 9.5ft 14s 10s 7 9 mph 1013.4mb 81f 78f
10:50pm 9.5ft 12s 10s 7 9 mph 1012.8mb 81f 78f
9:50pm 9ft 12s 9s 4 7 mph 1012.1mb 81f 78f
8:50pm 8ft 11s 9s 4 7 mph 1011.8mb 81f 78f
7:50pm 8ft 12s 9s 7 9 mph 1011.9mb 81f 78f
6:50pm 8ft 12s 9s 4 7 mph 1011.7mb 81f 78f
5:50pm 7ft 11s 9s 7 9 mph 1012mb 81f 78f
4:50pm 8ft 11s 9s 4 7 mph 1012.5mb 81f 78f
3:50pm 7.5ft 12s 9s 7 9 mph 1013.1mb 81f 78f